Cedar Point, KS (66843)

4:03 AM CDT on September 18, 2014 (GMT -0500)
RAWS TALLGRASS PRAIRIE KS US | Change Station
CLOSE
Current Station
Personal Weather Station
Location: Strong City, KS
Elevation: 1230 ft
Nearby Weather Stations

Elev 1230 ft 38.44 °N, 96.56 °W | Updated 33 minutes ago

Overcast
Overcast
66 °F
Feels Like 66 °F
N
5
Wind Variable Wind from North
Gusts 19.0 mph

Today
High -- | Low -- °F
--% Chance of Precip.
Yesterday
High -- | Low -- °F
Precip. -- in
7:11 AM 7:30 PM
Waning Crescent, 28% visible
Pressure 29.93 in
Visibility 2.5 miles
Clouds Few 2900 ft
Scattered Clouds 4700 ft
Overcast 5500 ft
Dew Point 60 °F
Humidity 81%
Rainfall 0.00 in
Snow Depth Not available.
UV 0 out of 12
Pollen 7.90 out of 12
Air Quality Not available.
Flu Activity Not available.
SPECI KEMP 180843Z AUTO 07007KT 2 1/2SM +TSRA BR FEW029 SCT047 OVC055 20/18 A2993 RMK AO2 PK WND 09026/0802 WSHFT 0751 LTG DSNT ALQDS RAB28 TSB41 P0016 T02000178

More Conditions Fewer Conditions

Pressure 29.93 in
Visibility 2.5 miles
Clouds Few 2900 ft
Scattered Clouds 4700 ft
Overcast 5500 ft
Dew Point 60 °F
Humidity 81%
Rainfall 0.00 in
Snow Depth Not available.
UV 0 out of 12
Pollen 7.90 out of 12
Air Quality Not available.
Flu Activity Not available.
SPECI KEMP 180843Z AUTO 07007KT 2 1/2SM +TSRA BR FEW029 SCT047 OVC055 20/18 A2993 RMK AO2 PK WND 09026/0802 WSHFT 0751 LTG DSNT ALQDS RAB28 TSB41 P0016 T02000178

More Conditions Fewer Conditions

10-Day Weather Forecast

Almanac

Astronomy

Sep. 18, 2014 Rise Set
Actual Time 7:11 AM CDT 7:30 PM CDT
Civil Twilight 6:44 AM CDT 7:56 PM CDT
Nautical Twilight 6:13 AM CDT 8:27 PM CDT
Astronomical Twilight 5:42 AM CDT 8:59 PM CDT
Moon 2:07 AM CDT 4:19 PM CDT
Length of Visible Light 13h 11m
Length of Day
12h 18m
Tomorrow will be 2m 27s shorter.
Waning Crescent, 28% of the Moon is Illuminated
Today
Waning Crescent
Sep 24
New
Oct 1
First Quarter
Oct 8
Full
Oct 15
Last Quarter

Today's Extremes

State Highs State Lows

Community

WunderPhotos

Upload Photos

1,754,310 photos uploaded!

Nearby

Snow Depth

Station Depth Elevation
No new snow has been reported.

Earthquake Activity

City Distance Mag. Time & Date
Helena, Oklahoma 157 miles 2.8 4:01 PM CDT
2014-09-17
Cherokee, Oklahoma 129 miles 2.7 2:05 PM CDT
2014-09-17
Medford, Oklahoma 117 miles 3.2 6:09 AM CDT
2014-09-17
Medford, Oklahoma 116 miles 3.3 5:35 PM CDT
2014-09-16
Minimum magnitude displayed is 2.5.

Coastal Water Temperatures

Place Temperature
No Stations Reporting

Nearby Weather Stations